Pecos, TX

3:24 AM CDT on April 27, 2017 (GMT -0500)
Painter and Associates, P.C. | | Change Station
Active Advisory: Fire Weather Warning

Elev 2605 ft 31.40 °N, 103.51 °W | Updated 15 seconds ago

Clear
Clear
59.5 °F
Feels Like 59.5 °F
N
2.5
Wind Variable Wind from ESE
Gusts 4.9 mph

Today
High -- | Low -- °F
--% Chance of Precip.
Yesterday
High -- | Low -- °F
Precip. -- in
Pressure 29.70 in
Visibility 10.0 miles
Clouds Clear
Dew Point 29 °F
Humidity 31%
Rainfall 0.00 in
Snow Depth Not available.
7:12 AM 8:31 PM
New Moon, 1% visible
METAR KPEQ 270815Z AUTO 09005KT 10SM CLR 12/M01 A2970 RMK AO2 T01201010
Pressure 29.70 in
Visibility 10.0 miles
Clouds Clear
Dew Point 29 °F
Humidity 31%
Rainfall 0.00 in
Snow Depth Not available.
7:12 AM 8:31 PM
New Moon, 1% visible
METAR KPEQ 270815Z AUTO 09005KT 10SM CLR 12/M01 A2970 RMK AO2 T01201010

Get Your Daily Forecast Email!

Thanks for signing up!

Be on the lookout for a verification email in your inbox.

You'll start receiving severe weather alerts in your inbox..

×

10-Day Weather Forecast

Almanac

Astronomy

Apr. 27, 2017 Rise Set
Actual Time
Civil Twilight
Nautical Twilight
Astronomical Twilight
Moon
Length of Visible Light
Length of Day
Tomorrow will be .
, % of the Moon is Illuminated

Today's Extremes

State Highs State Lows

Community

WunderPhotos

WunderBlog® & News

Nearby

Air Quality

  Air Quality AQ Index Pollutant
Not available.

Snow Depth

Station Depth Elevation

Earthquake Activity

City Distance Mag. Time & Date
Minimum magnitude displayed is 2.5.

Coastal Water Temperatures

Place Temperature

Stations

Nearby Weather Stations

Station Location Temp. Windchill Dew Point Humidity Wind Precip. Elev Updated Type
                   

Watches & Warnings

Fire Weather Warning
Issued: 5:32 PM MDT Apr. 26, 2017 – National Weather Service

... Red flag warning remains in effect from 1 PM CDT /noon MDT/ to
7 PM CDT /6 PM MDT/ Thursday for relative humidity of 15% or
less, 20 ft winds of 20 mph or more, and high to extreme fire
danger...

* humidity... 10%.

* Fire danger... very high to extreme.

* Impacts... outdoor burning is not recommended.

Precautionary/preparedness actions...

Stow trailer chains properly and avoid driving in dry grass.